PWSweather.com
Personal Weather Stations
Station Observations
BULSHOEK
ClanwilliamZA

ClanwilliamZA

Lat: -32.003, Lon: 18.782

Elevation: 213

Station Type: Davis Vantage Pro

High Low Average
Temperature 64.3°F17.9°C 48.4°F9.1°C 57.3°F14.1°C
Dew Point 57.5°F14.2°C 45.0°F7.2°C 53.6°F12.0°C
Winds 1.0 mph 1.6 kmh Calm Calm Calm WCalm W
Wind Gusts 7.0 mph11.3 kmh -- --
Humidity 92% 77% 88%
Pressure 29.96 in1014.6 mb 29.79 in1008.8 mb -
Precipitation 0.64 in16.3 mm - -
Hour Temp Dew Point Humidity Winds Wind Gusts Pressure Precip Precip Rate Daily Precip Total
12:00 AM 58.6°F14.8°C 56.0°F13.3°C 91% Calm Calm -- 29.96 in1014.6 mb 0.00 in0.0 mm 0.00 in0.0 mm 0.12 in3.0 mm
12:05 AM 58.6°F14.8°C 56.0°F13.3°C 91% Calm Calm -- 29.96 in1014.6 mb 0.00 in0.0 mm 0.00 in0.0 mm 0.00 in0.0 mm
12:10 AM 58.5°F14.7°C 55.9°F13.3°C 91% Calm Calm -- 29.96 in1014.6 mb 0.00 in0.0 mm 0.00 in0.0 mm 0.00 in0.0 mm
12:15 AM 58.5°F14.7°C 55.9°F13.3°C 91% Calm Calm -- 29.95 in1014.2 mb 0.00 in0.0 mm 0.00 in0.0 mm 0.00 in0.0 mm
12:20 AM 58.4°F14.7°C 55.8°F13.2°C 91% Calm Calm -- 29.95 in1014.2 mb 0.00 in0.0 mm 0.00 in0.0 mm 0.00 in0.0 mm
12:25 AM 58.3°F14.6°C 55.7°F13.2°C 91% Calm Calm -- 29.95 in1014.2 mb 0.00 in0.0 mm 0.00 in0.0 mm 0.00 in0.0 mm
12:30 AM 58.3°F14.6°C 55.7°F13.2°C 91% Calm Calm -- 29.95 in1014.2 mb 0.00 in0.0 mm 0.00 in0.0 mm 0.00 in0.0 mm
12:35 AM 58.2°F14.6°C 55.6°F13.1°C 91% Calm Calm -- 29.95 in1014.2 mb 0.00 in0.0 mm 0.00 in0.0 mm 0.00 in0.0 mm
12:40 AM 58.1°F14.5°C 55.5°F13.1°C 91% Calm Calm -- 29.95 in1014.2 mb 0.00 in0.0 mm 0.00 in0.0 mm 0.00 in0.0 mm
12:45 AM 57.9°F14.4°C 55.3°F12.9°C 91% Calm Calm -- 29.95 in1014.2 mb 0.00 in0.0 mm 0.00 in0.0 mm 0.00 in0.0 mm
12:50 AM 57.7°F14.3°C 55.1°F12.8°C 91% Calm Calm -- 29.95 in1014.2 mb 0.00 in0.0 mm 0.00 in0.0 mm 0.00 in0.0 mm
12:55 AM 57.6°F14.2°C 55.0°F12.8°C 91% Calm Calm -- 29.95 in1014.2 mb 0.00 in0.0 mm 0.00 in0.0 mm 0.00 in0.0 mm
01:00 AM 57.5°F14.2°C 54.9°F12.7°C 91% Calm Calm -- 29.95 in1014.2 mb 0.00 in0.0 mm 0.00 in0.0 mm 0.00 in0.0 mm
01:05 AM 57.4°F14.1°C 54.8°F12.7°C 91% Calm Calm -- 29.95 in1014.2 mb 0.00 in0.0 mm 0.00 in0.0 mm 0.00 in0.0 mm
01:10 AM 57.3°F14.1°C 54.7°F12.6°C 91% Calm Calm -- 29.95 in1014.2 mb 0.00 in0.0 mm 0.00 in0.0 mm 0.00 in0.0 mm
01:15 AM 57.3°F14.1°C 54.7°F12.6°C 91% Calm Calm -- 29.94 in1013.9 mb 0.00 in0.0 mm 0.00 in0.0 mm 0.00 in0.0 mm
01:20 AM 57.3°F14.1°C 54.7°F12.6°C 91% Calm Calm -- 29.94 in1013.9 mb 0.00 in0.0 mm 0.00 in0.0 mm 0.00 in0.0 mm
01:25 AM 57.2°F14.0°C 54.6°F12.6°C 91% Calm Calm -- 29.94 in1013.9 mb 0.00 in0.0 mm 0.00 in0.0 mm 0.00 in0.0 mm
01:30 AM 57.1°F13.9°C 54.5°F12.5°C 91% Calm Calm -- 29.94 in1013.9 mb 0.00 in0.0 mm 0.00 in0.0 mm 0.00 in0.0 mm
01:35 AM 57.1°F13.9°C 54.5°F12.5°C 91% Calm Calm -- 29.94 in1013.9 mb 0.00 in0.0 mm 0.00 in0.0 mm 0.00 in0.0 mm
01:40 AM 57.1°F13.9°C 54.5°F12.5°C 91% Calm Calm -- 29.94 in1013.9 mb 0.00 in0.0 mm 0.00 in0.0 mm 0.00 in0.0 mm
01:45 AM 57.1°F13.9°C 54.5°F12.5°C 91% Calm Calm -- 29.93 in1013.5 mb 0.00 in0.0 mm 0.00 in0.0 mm 0.00 in0.0 mm
01:50 AM 57.1°F13.9°C 54.5°F12.5°C 91% Calm Calm -- 29.93 in1013.5 mb 0.00 in0.0 mm 0.00 in0.0 mm 0.00 in0.0 mm
01:55 AM 57.2°F14.0°C 54.6°F12.6°C 91% Calm Calm -- 29.93 in1013.5 mb 0.00 in0.0 mm 0.00 in0.0 mm 0.00 in0.0 mm
02:00 AM 57.2°F14.0°C 54.6°F12.6°C 91% Calm Calm -- 29.93 in1013.5 mb 0.00 in0.0 mm 0.00 in0.0 mm 0.00 in0.0 mm
02:05 AM 57.1°F13.9°C 54.5°F12.5°C 91% Calm Calm -- 29.93 in1013.5 mb 0.00 in0.0 mm 0.00 in0.0 mm 0.00 in0.0 mm
02:10 AM 57.1°F13.9°C 54.8°F12.7°C 92% Calm Calm -- 29.93 in1013.5 mb 0.00 in0.0 mm 0.00 in0.0 mm 0.00 in0.0 mm
02:15 AM 57.0°F13.9°C 54.7°F12.6°C 92% Calm Calm -- 29.93 in1013.5 mb 0.00 in0.0 mm 0.00 in0.0 mm 0.00 in0.0 mm
02:20 AM 57.0°F13.9°C 54.7°F12.6°C 92% Calm Calm -- 29.93 in1013.5 mb 0.00 in0.0 mm 0.00 in0.0 mm 0.00 in0.0 mm
02:25 AM 57.0°F13.9°C 54.7°F12.6°C 92% Calm Calm -- 29.93 in1013.5 mb 0.00 in0.0 mm 0.00 in0.0 mm 0.00 in0.0 mm
02:30 AM 57.0°F13.9°C 54.7°F12.6°C 92% Calm Calm -- 29.93 in1013.5 mb 0.00 in0.0 mm 0.00 in0.0 mm 0.00 in0.0 mm
02:35 AM 56.9°F13.8°C 54.6°F12.6°C 92% Calm Calm -- 29.93 in1013.5 mb 0.00 in0.0 mm 0.00 in0.0 mm 0.00 in0.0 mm
02:40 AM 56.9°F13.8°C 54.6°F12.6°C 92% Calm Calm -- 29.93 in1013.5 mb 0.00 in0.0 mm 0.00 in0.0 mm 0.00 in0.0 mm
02:45 AM 56.8°F13.8°C 54.5°F12.5°C 92% Calm Calm -- 29.93 in1013.5 mb 0.00 in0.0 mm 0.00 in0.0 mm 0.00 in0.0 mm
02:50 AM 56.8°F13.8°C 54.5°F12.5°C 92% Calm Calm -- 29.93 in1013.5 mb 0.00 in0.0 mm 0.00 in0.0 mm 0.00 in0.0 mm
02:55 AM 56.8°F13.8°C 54.5°F12.5°C 92% Calm Calm -- 29.93 in1013.5 mb 0.00 in0.0 mm 0.00 in0.0 mm 0.00 in0.0 mm
03:00 AM 56.8°F13.8°C 54.5°F12.5°C 92% Calm Calm -- 29.93 in1013.5 mb 0.00 in0.0 mm 0.00 in0.0 mm 0.00 in0.0 mm
03:05 AM 56.8°F13.8°C 54.5°F12.5°C 92% Calm Calm -- 29.93 in1013.5 mb 0.00 in0.0 mm 0.00 in0.0 mm 0.00 in0.0 mm
03:10 AM 56.9°F13.8°C 54.6°F12.6°C 92% Calm Calm -- 29.93 in1013.5 mb 0.00 in0.0 mm 0.00 in0.0 mm 0.00 in0.0 mm
03:15 AM 56.8°F13.8°C 54.5°F12.5°C 92% Calm Calm -- 29.93 in1013.5 mb 0.00 in0.0 mm 0.00 in0.0 mm 0.00 in0.0 mm
03:20 AM 56.8°F13.8°C 54.5°F12.5°C 92% Calm Calm -- 29.93 in1013.5 mb 0.00 in0.0 mm 0.00 in0.0 mm 0.00 in0.0 mm
03:25 AM 56.8°F13.8°C 54.5°F12.5°C 92% Calm Calm -- 29.93 in1013.5 mb 0.00 in0.0 mm 0.00 in0.0 mm 0.00 in0.0 mm
03:30 AM 56.7°F13.7°C 54.4°F12.4°C 92% Calm Calm -- 29.93 in1013.5 mb 0.00 in0.0 mm 0.00 in0.0 mm 0.00 in0.0 mm
03:35 AM 56.6°F13.7°C 54.3°F12.4°C 92% Calm Calm -- 29.93 in1013.5 mb 0.00 in0.0 mm 0.00 in0.0 mm 0.00 in0.0 mm
03:40 AM 56.5°F13.6°C 54.2°F12.3°C 92% Calm Calm -- 29.93 in1013.5 mb 0.00 in0.0 mm 0.00 in0.0 mm 0.00 in0.0 mm
03:45 AM 56.5°F13.6°C 54.2°F12.3°C 92% Calm Calm -- 29.92 in1013.2 mb 0.00 in0.0 mm 0.00 in0.0 mm 0.00 in0.0 mm
03:50 AM 56.3°F13.5°C 54.0°F12.2°C 92% Calm Calm -- 29.92 in1013.2 mb 0.00 in0.0 mm 0.00 in0.0 mm 0.00 in0.0 mm
03:55 AM 56.1°F13.4°C 53.8°F12.1°C 92% Calm Calm -- 29.92 in1013.2 mb 0.00 in0.0 mm 0.00 in0.0 mm 0.00 in0.0 mm
04:00 AM 56.0°F13.3°C 53.7°F12.1°C 92% Calm Calm -- 29.92 in1013.2 mb 0.00 in0.0 mm 0.00 in0.0 mm 0.00 in0.0 mm
04:10 AM 55.8°F13.2°C 53.5°F11.9°C 92% Calm Calm -- 29.92 in1013.2 mb 0.00 in0.0 mm 0.00 in0.0 mm 0.00 in0.0 mm
04:15 AM 55.7°F13.2°C 53.4°F11.9°C 92% Calm Calm -- 29.91 in1012.9 mb 0.00 in0.0 mm 0.00 in0.0 mm 0.00 in0.0 mm
04:20 AM 55.5°F13.1°C 53.2°F11.8°C 92% Calm Calm -- 29.91 in1012.9 mb 0.00 in0.0 mm 0.00 in0.0 mm 0.00 in0.0 mm
04:25 AM 55.4°F13.0°C 53.1°F11.7°C 92% Calm Calm -- 29.91 in1012.9 mb 0.00 in0.0 mm 0.00 in0.0 mm 0.00 in0.0 mm
04:30 AM 55.4°F13.0°C 53.1°F11.7°C 92% Calm Calm -- 29.91 in1012.9 mb 0.00 in0.0 mm 0.00 in0.0 mm 0.00 in0.0 mm
04:35 AM 55.4°F13.0°C 53.1°F11.7°C 92% Calm Calm -- 29.91 in1012.9 mb 0.00 in0.0 mm 0.00 in0.0 mm 0.00 in0.0 mm
04:40 AM 55.7°F13.2°C 53.4°F11.9°C 92% Calm Calm -- 29.91 in1012.9 mb 0.00 in0.0 mm 0.00 in0.0 mm 0.00 in0.0 mm
04:45 AM 55.7°F13.2°C 53.4°F11.9°C 92% Calm Calm -- 29.91 in1012.9 mb 0.00 in0.0 mm 0.00 in0.0 mm 0.00 in0.0 mm
04:50 AM 55.7°F13.2°C 53.4°F11.9°C 92% Calm Calm -- 29.91 in1012.9 mb 0.00 in0.0 mm 0.00 in0.0 mm 0.00 in0.0 mm
04:55 AM 55.8°F13.2°C 53.5°F11.9°C 92% Calm Calm -- 29.91 in1012.9 mb 0.00 in0.0 mm 0.00 in0.0 mm 0.00 in0.0 mm
05:00 AM 55.8°F13.2°C 53.5°F11.9°C 92% Calm Calm -- 29.91 in1012.9 mb 0.00 in0.0 mm 0.00 in0.0 mm 0.00 in0.0 mm
05:05 AM 56.0°F13.3°C 53.7°F12.1°C 92% Calm Calm -- 29.91 in1012.9 mb 0.00 in0.0 mm 0.00 in0.0 mm 0.00 in0.0 mm
05:10 AM 56.0°F13.3°C 53.7°F12.1°C 92% Calm Calm -- 29.91 in1012.9 mb 0.00 in0.0 mm 0.00 in0.0 mm 0.00 in0.0 mm
05:15 AM 56.1°F13.4°C 53.8°F12.1°C 92% Calm Calm -- 29.90 in1012.5 mb 0.00 in0.0 mm 0.00 in0.0 mm 0.00 in0.0 mm
05:20 AM 56.2°F13.4°C 53.9°F12.2°C 92% Calm Calm -- 29.90 in1012.5 mb 0.00 in0.0 mm 0.00 in0.0 mm 0.00 in0.0 mm
05:25 AM 56.1°F13.4°C 53.8°F12.1°C 92% Calm Calm -- 29.90 in1012.5 mb 0.00 in0.0 mm 0.00 in0.0 mm 0.00 in0.0 mm
05:30 AM 56.0°F13.3°C 53.7°F12.1°C 92% Calm Calm -- 29.90 in1012.5 mb 0.00 in0.0 mm 0.00 in0.0 mm 0.00 in0.0 mm
05:35 AM 56.0°F13.3°C 53.7°F12.1°C 92% Calm Calm -- 29.90 in1012.5 mb 0.00 in0.0 mm 0.00 in0.0 mm 0.00 in0.0 mm
05:40 AM 56.0°F13.3°C 53.7°F12.1°C 92% Calm Calm -- 29.90 in1012.5 mb 0.00 in0.0 mm 0.00 in0.0 mm 0.00 in0.0 mm
05:45 AM 56.0°F13.3°C 53.7°F12.1°C 92% Calm Calm -- 29.90 in1012.5 mb 0.00 in0.0 mm 0.00 in0.0 mm 0.00 in0.0 mm
05:50 AM 56.1°F13.4°C 53.8°F12.1°C 92% Calm Calm -- 29.90 in1012.5 mb 0.00 in0.0 mm 0.00 in0.0 mm 0.00 in0.0 mm
05:55 AM 56.2°F13.4°C 53.9°F12.2°C 92% Calm Calm -- 29.90 in1012.5 mb 0.00 in0.0 mm 0.00 in0.0 mm 0.00 in0.0 mm
06:00 AM 56.3°F13.5°C 54.0°F12.2°C 92% Calm Calm -- 29.90 in1012.5 mb 0.00 in0.0 mm 0.00 in0.0 mm 0.00 in0.0 mm
06:05 AM 56.4°F13.6°C 54.1°F12.3°C 92% Calm Calm -- 29.90 in1012.5 mb 0.00 in0.0 mm 0.00 in0.0 mm 0.00 in0.0 mm
06:10 AM 56.4°F13.6°C 54.1°F12.3°C 92% Calm Calm -- 29.90 in1012.5 mb 0.00 in0.0 mm 0.00 in0.0 mm 0.00 in0.0 mm
06:15 AM 56.5°F13.6°C 54.2°F12.3°C 92% Calm Calm -- 29.90 in1012.5 mb 0.00 in0.0 mm 0.00 in0.0 mm 0.00 in0.0 mm
06:20 AM 56.6°F13.7°C 54.3°F12.4°C 92% Calm Calm -- 29.90 in1012.5 mb 0.00 in0.0 mm 0.00 in0.0 mm 0.00 in0.0 mm
06:25 AM 56.6°F13.7°C 54.3°F12.4°C 92% Calm Calm -- 29.90 in1012.5 mb 0.00 in0.0 mm 0.00 in0.0 mm 0.00 in0.0 mm
06:30 AM 56.6°F13.7°C 54.3°F12.4°C 92% Calm Calm -- 29.90 in1012.5 mb 0.00 in0.0 mm 0.00 in0.0 mm 0.00 in0.0 mm
06:35 AM 56.7°F13.7°C 54.4°F12.4°C 92% Calm Calm -- 29.90 in1012.5 mb 0.00 in0.0 mm 0.00 in0.0 mm 0.00 in0.0 mm
06:40 AM 56.7°F13.7°C 54.4°F12.4°C 92% Calm Calm -- 29.90 in1012.5 mb 0.00 in0.0 mm 0.00 in0.0 mm 0.00 in0.0 mm
06:45 AM 56.8°F13.8°C 54.5°F12.5°C 92% Calm Calm -- 29.90 in1012.5 mb 0.00 in0.0 mm 0.00 in0.0 mm 0.00 in0.0 mm
06:50 AM 56.8°F13.8°C 54.5°F12.5°C 92% Calm Calm -- 29.90 in1012.5 mb 0.00 in0.0 mm 0.00 in0.0 mm 0.00 in0.0 mm
06:55 AM 56.9°F13.8°C 54.6°F12.6°C 92% Calm Calm -- 29.90 in1012.5 mb 0.00 in0.0 mm 0.00 in0.0 mm 0.00 in0.0 mm
07:00 AM 56.9°F13.8°C 54.6°F12.6°C 92% Calm Calm -- 29.90 in1012.5 mb 0.00 in0.0 mm 0.00 in0.0 mm 0.00 in0.0 mm
07:05 AM 56.9°F13.8°C 54.6°F12.6°C 92% Calm Calm -- 29.90 in1012.5 mb 0.00 in0.0 mm 0.00 in0.0 mm 0.00 in0.0 mm
07:10 AM 57.0°F13.9°C 54.7°F12.6°C 92% Calm Calm -- 29.90 in1012.5 mb 0.00 in0.0 mm 0.00 in0.0 mm 0.00 in0.0 mm
07:15 AM 57.1°F13.9°C 54.8°F12.7°C 92% Calm Calm -- 29.90 in1012.5 mb 0.00 in0.0 mm 0.00 in0.0 mm 0.00 in0.0 mm
07:20 AM 57.1°F13.9°C 54.8°F12.7°C 92% Calm Calm -- 29.90 in1012.5 mb 0.00 in0.0 mm 0.00 in0.0 mm 0.00 in0.0 mm
07:25 AM 57.2°F14.0°C 54.9°F12.7°C 92% Calm Calm -- 29.90 in1012.5 mb 0.00 in0.0 mm 0.00 in0.0 mm 0.00 in0.0 mm
07:30 AM 57.2°F14.0°C 54.9°F12.7°C 92% Calm Calm -- 29.90 in1012.5 mb 0.00 in0.0 mm 0.00 in0.0 mm 0.00 in0.0 mm
07:35 AM 57.2°F14.0°C 54.9°F12.7°C 92% Calm Calm -- 29.90 in1012.5 mb 0.00 in0.0 mm 0.00 in0.0 mm 0.00 in0.0 mm
07:40 AM 57.1°F13.9°C 54.8°F12.7°C 92% Calm Calm -- 29.90 in1012.5 mb 0.00 in0.0 mm 0.00 in0.0 mm 0.00 in0.0 mm
07:45 AM 57.0°F13.9°C 54.7°F12.6°C 92% Calm Calm -- 29.90 in1012.5 mb 0.00 in0.0 mm 0.00 in0.0 mm 0.00 in0.0 mm
07:50 AM 57.1°F13.9°C 54.8°F12.7°C 92% Calm Calm -- 29.90 in1012.5 mb 0.00 in0.0 mm 0.00 in0.0 mm 0.00 in0.0 mm
07:55 AM 57.1°F13.9°C 54.8°F12.7°C 92% Calm Calm -- 29.90 in1012.5 mb 0.00 in0.0 mm 0.00 in0.0 mm 0.00 in0.0 mm
08:00 AM 57.1°F13.9°C 54.8°F12.7°C 92% Calm Calm -- 29.90 in1012.5 mb 0.00 in0.0 mm 0.00 in0.0 mm 0.00 in0.0 mm
08:05 AM 57.2°F14.0°C 54.9°F12.7°C 92% Calm Calm -- 29.90 in1012.5 mb 0.00 in0.0 mm 0.00 in0.0 mm 0.00 in0.0 mm
08:10 AM 57.3°F14.1°C 55.0°F12.8°C 92% Calm Calm -- 29.90 in1012.5 mb 0.00 in0.0 mm 0.00 in0.0 mm 0.00 in0.0 mm
08:15 AM 57.5°F14.2°C 55.2°F12.9°C 92% Calm Calm -- 29.91 in1012.9 mb 0.00 in0.0 mm 0.00 in0.0 mm 0.00 in0.0 mm
08:20 AM 57.5°F14.2°C 55.2°F12.9°C 92% Calm Calm -- 29.91 in1012.9 mb 0.00 in0.0 mm 0.00 in0.0 mm 0.00 in0.0 mm
08:25 AM 57.6°F14.2°C 55.3°F12.9°C 92% Calm Calm -- 29.91 in1012.9 mb 0.00 in0.0 mm 0.00 in0.0 mm 0.00 in0.0 mm
08:30 AM 57.7°F14.3°C 55.1°F12.8°C 91% Calm Calm -- 29.90 in1012.5 mb 0.00 in0.0 mm 0.00 in0.0 mm 0.00 in0.0 mm
08:35 AM 57.8°F14.3°C 55.2°F12.9°C 91% Calm Calm -- 29.90 in1012.5 mb 0.00 in0.0 mm 0.00 in0.0 mm 0.00 in0.0 mm
08:40 AM 57.8°F14.3°C 55.2°F12.9°C 91% Calm Calm -- 29.90 in1012.5 mb 0.00 in0.0 mm 0.00 in0.0 mm 0.00 in0.0 mm
08:45 AM 58.0°F14.4°C 55.4°F13.0°C 91% Calm Calm -- 29.90 in1012.5 mb 0.00 in0.0 mm 0.00 in0.0 mm 0.00 in0.0 mm
08:50 AM 58.1°F14.5°C 55.5°F13.1°C 91% Calm Calm -- 29.90 in1012.5 mb 0.00 in0.0 mm 0.00 in0.0 mm 0.00 in0.0 mm
08:55 AM 58.2°F14.6°C 55.6°F13.1°C 91% Calm Calm -- 29.90 in1012.5 mb 0.00 in0.0 mm 0.00 in0.0 mm 0.00 in0.0 mm
09:00 AM 58.3°F14.6°C 55.7°F13.2°C 91% Calm Calm -- 29.90 in1012.5 mb 0.00 in0.0 mm 0.00 in0.0 mm 0.00 in0.0 mm
09:05 AM 58.3°F14.6°C 55.7°F13.2°C 91% Calm Calm -- 29.90 in1012.5 mb 0.00 in0.0 mm 0.00 in0.0 mm 0.00 in0.0 mm
09:10 AM 58.2°F14.6°C 55.6°F13.1°C 91% Calm Calm -- 29.90 in1012.5 mb 0.00 in0.0 mm 0.00 in0.0 mm 0.00 in0.0 mm
09:15 AM 58.3°F14.6°C 55.7°F13.2°C 91% Calm Calm -- 29.90 in1012.5 mb 0.00 in0.0 mm 0.00 in0.0 mm 0.00 in0.0 mm
09:20 AM 58.5°F14.7°C 55.9°F13.3°C 91% Calm Calm -- 29.90 in1012.5 mb 0.00 in0.0 mm 0.00 in0.0 mm 0.00 in0.0 mm
09:25 AM 58.8°F14.9°C 56.2°F13.4°C 91% Calm Calm -- 29.90 in1012.5 mb 0.00 in0.0 mm 0.00 in0.0 mm 0.00 in0.0 mm
09:30 AM 59.0°F15.0°C 56.4°F13.6°C 91% Calm Calm -- 29.90 in1012.5 mb 0.00 in0.0 mm 0.00 in0.0 mm 0.00 in0.0 mm
09:35 AM 59.2°F15.1°C 56.3°F13.5°C 90% Calm Calm -- 29.90 in1012.5 mb 0.00 in0.0 mm 0.00 in0.0 mm 0.00 in0.0 mm
09:40 AM 59.4°F15.2°C 56.5°F13.6°C 90% Calm Calm -- 29.90 in1012.5 mb 0.00 in0.0 mm 0.00 in0.0 mm 0.00 in0.0 mm
09:45 AM 59.6°F15.3°C 56.7°F13.7°C 90% Calm Calm -- 29.89 in1012.2 mb 0.00 in0.0 mm 0.00 in0.0 mm 0.00 in0.0 mm
09:50 AM 59.8°F15.4°C 56.9°F13.8°C 90% Calm Calm -- 29.89 in1012.2 mb 0.00 in0.0 mm 0.00 in0.0 mm 0.00 in0.0 mm
09:55 AM 60.0°F15.6°C 56.7°F13.7°C 89% Calm Calm -- 29.89 in1012.2 mb 0.00 in0.0 mm 0.00 in0.0 mm 0.00 in0.0 mm
10:00 AM 60.2°F15.7°C 56.9°F13.8°C 89% Calm Calm -- 29.89 in1012.2 mb 0.00 in0.0 mm 0.00 in0.0 mm 0.00 in0.0 mm
10:05 AM 60.4°F15.8°C 57.1°F13.9°C 89% Calm Calm -- 29.89 in1012.2 mb 0.00 in0.0 mm 0.00 in0.0 mm 0.00 in0.0 mm
10:10 AM 60.6°F15.9°C 57.0°F13.9°C 88% Calm Calm -- 29.89 in1012.2 mb 0.00 in0.0 mm 0.00 in0.0 mm 0.00 in0.0 mm
10:15 AM 61.1°F16.2°C 57.2°F14.0°C 87% Calm Calm -- 29.88 in1011.9 mb 0.00 in0.0 mm 0.00 in0.0 mm 0.00 in0.0 mm
10:20 AM 61.6°F16.4°C 57.4°F14.1°C 86% Calm Calm -- 29.88 in1011.9 mb 0.00 in0.0 mm 0.00 in0.0 mm 0.00 in0.0 mm
10:25 AM 62.2°F16.8°C 57.0°F13.9°C 83% Calm Calm -- 29.88 in1011.9 mb 0.00 in0.0 mm 0.00 in0.0 mm 0.00 in0.0 mm
10:30 AM 62.9°F17.2°C 56.6°F13.7°C 80% Calm Calm -- 29.87 in1011.5 mb 0.00 in0.0 mm 0.00 in0.0 mm 0.00 in0.0 mm
10:35 AM 63.2°F17.3°C 56.6°F13.7°C 79% Calm Calm -- 29.87 in1011.5 mb 0.00 in0.0 mm 0.00 in0.0 mm 0.00 in0.0 mm
10:40 AM 63.2°F17.3°C 56.2°F13.4°C 78% Calm Calm -- 29.87 in1011.5 mb 0.00 in0.0 mm 0.00 in0.0 mm 0.00 in0.0 mm
10:45 AM 63.1°F17.3°C 56.1°F13.4°C 78% Calm Calm -- 29.87 in1011.5 mb 0.00 in0.0 mm 0.00 in0.0 mm 0.00 in0.0 mm
10:50 AM 62.9°F17.2°C 55.9°F13.3°C 78% Calm Calm -- 29.87 in1011.5 mb 0.00 in0.0 mm 0.00 in0.0 mm 0.00 in0.0 mm
10:55 AM 62.9°F17.2°C 56.3°F13.5°C 79% Calm Calm -- 29.87 in1011.5 mb 0.00 in0.0 mm 0.00 in0.0 mm 0.00 in0.0 mm
11:00 AM 63.0°F17.2°C 56.4°F13.6°C 79% Calm Calm -- 29.87 in1011.5 mb 0.00 in0.0 mm 0.00 in0.0 mm 0.00 in0.0 mm
11:05 AM 63.0°F17.2°C 56.4°F13.6°C 79% Calm Calm -- 29.87 in1011.5 mb 0.00 in0.0 mm 0.00 in0.0 mm 0.00 in0.0 mm
11:10 AM 63.1°F17.3°C 56.5°F13.6°C 79% Calm Calm -- 29.87 in1011.5 mb 0.00 in0.0 mm 0.00 in0.0 mm 0.00 in0.0 mm
11:15 AM 63.0°F17.2°C 56.4°F13.6°C 79% Calm Calm -- 29.87 in1011.5 mb 0.00 in0.0 mm 0.00 in0.0 mm 0.00 in0.0 mm
11:20 AM 63.0°F17.2°C 56.4°F13.6°C 79% Calm Calm -- 29.87 in1011.5 mb 0.00 in0.0 mm 0.00 in0.0 mm 0.00 in0.0 mm
11:25 AM 62.9°F17.2°C 56.6°F13.7°C 80% Calm Calm -- 29.87 in1011.5 mb 0.00 in0.0 mm 0.00 in0.0 mm 0.00 in0.0 mm
11:30 AM 62.9°F17.2°C 56.6°F13.7°C 80% Calm Calm -- 29.87 in1011.5 mb 0.00 in0.0 mm 0.00 in0.0 mm 0.00 in0.0 mm
11:35 AM 63.3°F17.4°C 57.0°F13.9°C 80% Calm Calm -- 29.87 in1011.5 mb 0.00 in0.0 mm 0.00 in0.0 mm 0.00 in0.0 mm
11:40 AM 63.5°F17.5°C 56.9°F13.8°C 79% Calm Calm -- 29.87 in1011.5 mb 0.00 in0.0 mm 0.00 in0.0 mm 0.00 in0.0 mm
11:45 AM 63.6°F17.6°C 57.0°F13.9°C 79% Calm Calm -- 29.86 in1011.2 mb 0.00 in0.0 mm 0.00 in0.0 mm 0.00 in0.0 mm
11:50 AM 64.0°F17.8°C 57.0°F13.9°C 78% Calm Calm -- 29.86 in1011.2 mb 0.00 in0.0 mm 0.00 in0.0 mm 0.00 in0.0 mm
11:55 AM 63.9°F17.7°C 56.9°F13.8°C 78% Calm Calm -- 29.86 in1011.2 mb 0.00 in0.0 mm 0.00 in0.0 mm 0.00 in0.0 mm
12:00 PM 64.0°F17.8°C 57.0°F13.9°C 78% Calm Calm -- 29.85 in1010.8 mb 0.00 in0.0 mm 0.00 in0.0 mm 0.00 in0.0 mm
12:05 PM 64.1°F17.8°C 57.1°F13.9°C 78% Calm Calm -- 29.85 in1010.8 mb 0.00 in0.0 mm 0.00 in0.0 mm 0.00 in0.0 mm
12:10 PM 64.0°F17.8°C 57.0°F13.9°C 78% Calm Calm -- 29.85 in1010.8 mb 0.00 in0.0 mm 0.00 in0.0 mm 0.00 in0.0 mm
12:15 PM 63.9°F17.7°C 56.9°F13.8°C 78% Calm Calm -- 29.84 in1010.5 mb 0.00 in0.0 mm 0.00 in0.0 mm 0.00 in0.0 mm
12:20 PM 63.9°F17.7°C 56.9°F13.8°C 78% Calm Calm -- 29.84 in1010.5 mb 0.00 in0.0 mm 0.00 in0.0 mm 0.00 in0.0 mm
12:25 PM 63.8°F17.7°C 57.2°F14.0°C 79% Calm Calm -- 29.84 in1010.5 mb 0.00 in0.0 mm 0.00 in0.0 mm 0.00 in0.0 mm
12:30 PM 63.8°F17.7°C 56.8°F13.8°C 78% Calm Calm -- 29.82 in1009.8 mb 0.00 in0.0 mm 0.00 in0.0 mm 0.00 in0.0 mm
12:35 PM 64.0°F17.8°C 56.6°F13.7°C 77% Calm Calm -- 29.82 in1009.8 mb 0.00 in0.0 mm 0.00 in0.0 mm 0.00 in0.0 mm
12:40 PM 64.0°F17.8°C 57.0°F13.9°C 78% Calm Calm -- 29.82 in1009.8 mb 0.00 in0.0 mm 0.00 in0.0 mm 0.00 in0.0 mm
12:45 PM 64.2°F17.9°C 56.8°F13.8°C 77% Calm Calm -- 29.81 in1009.5 mb 0.00 in0.0 mm 0.00 in0.0 mm 0.00 in0.0 mm
12:50 PM 64.3°F17.9°C 56.9°F13.8°C 77% Calm Calm -- 29.81 in1009.5 mb 0.00 in0.0 mm 0.00 in0.0 mm 0.00 in0.0 mm
12:55 PM 64.1°F17.8°C 57.1°F13.9°C 78% Calm Calm -- 29.81 in1009.5 mb 0.00 in0.0 mm 0.00 in0.0 mm 0.00 in0.0 mm
01:00 PM 63.3°F17.4°C 57.0°F13.9°C 80% Calm Calm -- 29.81 in1009.5 mb 0.01 in0.3 mm 0.01 in0.3 mm 0.01 in0.3 mm
01:05 PM 62.5°F16.9°C 57.3°F14.1°C 83% Calm Calm -- 29.81 in1009.5 mb 0.02 in0.5 mm 0.12 in3.0 mm 0.02 in0.5 mm
01:10 PM 62.0°F16.7°C 57.4°F14.1°C 85% Calm Calm -- 29.81 in1009.5 mb 0.02 in0.5 mm 0.00 in0.0 mm 0.02 in0.5 mm
01:15 PM 61.7°F16.5°C 57.5°F14.2°C 86% Calm Calm -- 29.81 in1009.5 mb 0.04 in1.0 mm 0.24 in6.1 mm 0.04 in1.0 mm
01:20 PM 61.2°F16.2°C 57.3°F14.1°C 87% Calm Calm -- 29.81 in1009.5 mb 0.06 in1.5 mm 0.24 in6.1 mm 0.06 in1.5 mm
01:25 PM 60.7°F15.9°C 57.1°F13.9°C 88% Calm Calm -- 29.81 in1009.5 mb 0.09 in2.3 mm 0.36 in9.1 mm 0.09 in2.3 mm
01:30 PM 60.4°F15.8°C 56.8°F13.8°C 88% Calm Calm -- 29.81 in1009.5 mb 0.12 in3.0 mm 0.36 in9.1 mm 0.12 in3.0 mm
01:35 PM 59.7°F15.4°C 56.1°F13.4°C 88% Calm Calm -- 29.81 in1009.5 mb 0.13 in3.3 mm 0.12 in3.0 mm 0.13 in3.3 mm
01:40 PM 59.3°F15.2°C 56.1°F13.4°C 89% Calm Calm -- 29.81 in1009.5 mb 0.13 in3.3 mm 0.00 in0.0 mm 0.13 in3.3 mm
01:45 PM 59.1°F15.1°C 55.9°F13.3°C 89% Calm Calm -- 29.80 in1009.1 mb 0.13 in3.3 mm 0.00 in0.0 mm 0.13 in3.3 mm
01:50 PM 58.9°F14.9°C 55.7°F13.2°C 89% Calm Calm -- 29.80 in1009.1 mb 0.14 in3.6 mm 0.12 in3.0 mm 0.14 in3.6 mm
01:55 PM 58.8°F14.9°C 55.6°F13.1°C 89% Calm Calm -- 29.80 in1009.1 mb 0.15 in3.8 mm 0.12 in3.0 mm 0.15 in3.8 mm
02:00 PM 58.8°F14.9°C 55.6°F13.1°C 89% Calm Calm -- 29.80 in1009.1 mb 0.14 in3.6 mm 0.00 in0.0 mm 0.15 in3.8 mm
02:05 PM 58.7°F14.8°C 55.5°F13.1°C 89% Calm Calm -- 29.80 in1009.1 mb 0.14 in3.6 mm 0.00 in0.0 mm 0.16 in4.1 mm
02:10 PM 58.8°F14.9°C 55.6°F13.1°C 89% Calm Calm -- 29.80 in1009.1 mb 0.14 in3.6 mm 0.00 in0.0 mm 0.16 in4.1 mm
02:15 PM 58.5°F14.7°C 55.3°F12.9°C 89% Calm Calm -- 29.80 in1009.1 mb 0.13 in3.3 mm 0.00 in0.0 mm 0.17 in4.3 mm
02:20 PM 58.5°F14.7°C 55.3°F12.9°C 89% Calm Calm -- 29.80 in1009.1 mb 0.12 in3.0 mm 0.00 in0.0 mm 0.17 in4.3 mm
02:25 PM 58.4°F14.7°C 55.5°F13.1°C 90% Calm Calm -- 29.80 in1009.1 mb 0.09 in2.3 mm 0.00 in0.0 mm 0.17 in4.3 mm
02:30 PM 58.4°F14.7°C 55.5°F13.1°C 90% Calm Calm -- 29.79 in1008.8 mb 0.06 in1.5 mm 0.00 in0.0 mm 0.17 in4.3 mm
02:35 PM 58.2°F14.6°C 55.3°F12.9°C 90% Calm Calm -- 29.79 in1008.8 mb 0.06 in1.5 mm 0.00 in0.0 mm 0.19 in4.8 mm
02:40 PM 58.1°F14.5°C 55.2°F12.9°C 90% Calm Calm -- 29.79 in1008.8 mb 0.06 in1.5 mm 0.00 in0.0 mm 0.20 in5.1 mm
02:45 PM 57.9°F14.4°C 55.0°F12.8°C 90% Calm Calm -- 29.80 in1009.1 mb 0.06 in1.5 mm 0.00 in0.0 mm 0.20 in5.1 mm
02:50 PM 57.9°F14.4°C 55.0°F12.8°C 90% Calm Calm -- 29.80 in1009.1 mb 0.06 in1.5 mm 0.00 in0.0 mm 0.20 in5.1 mm
02:55 PM 57.9°F14.4°C 55.0°F12.8°C 90% Calm Calm -- 29.80 in1009.1 mb 0.06 in1.5 mm 0.00 in0.0 mm 0.20 in5.1 mm
03:00 PM 57.8°F14.3°C 55.2°F12.9°C 91% Calm Calm -- 29.79 in1008.8 mb 0.06 in1.5 mm 0.00 in0.0 mm 0.21 in5.3 mm
03:05 PM 57.5°F14.2°C 54.6°F12.6°C 90% Calm Calm -- 29.79 in1008.8 mb 0.06 in1.5 mm 0.00 in0.0 mm 0.21 in5.3 mm
03:10 PM 57.5°F14.2°C 54.9°F12.7°C 91% Calm Calm -- 29.79 in1008.8 mb 0.06 in1.5 mm 0.00 in0.0 mm 0.21 in5.3 mm
03:15 PM 57.3°F14.1°C 54.7°F12.6°C 91% Calm Calm -- 29.79 in1008.8 mb 0.05 in1.3 mm 0.00 in0.0 mm 0.21 in5.3 mm
03:20 PM 57.3°F14.1°C 54.7°F12.6°C 91% Calm Calm -- 29.79 in1008.8 mb 0.04 in1.0 mm 0.00 in0.0 mm 0.21 in5.3 mm
03:25 PM 57.4°F14.1°C 54.8°F12.7°C 91% Calm Calm -- 29.79 in1008.8 mb 0.04 in1.0 mm 0.00 in0.0 mm 0.21 in5.3 mm
03:30 PM 57.6°F14.2°C 55.0°F12.8°C 91% Calm Calm -- 29.79 in1008.8 mb 0.04 in1.0 mm 0.00 in0.0 mm 0.21 in5.3 mm
03:35 PM 57.7°F14.3°C 55.1°F12.8°C 91% Calm Calm -- 29.79 in1008.8 mb 0.02 in0.5 mm 0.00 in0.0 mm 0.21 in5.3 mm
03:40 PM 57.8°F14.3°C 55.2°F12.9°C 91% Calm Calm -- 29.79 in1008.8 mb 0.02 in0.5 mm 0.00 in0.0 mm 0.21 in5.3 mm
03:45 PM 57.7°F14.3°C 55.1°F12.8°C 91% Calm Calm -- 29.79 in1008.8 mb 0.03 in0.8 mm 0.12 in3.0 mm 0.23 in5.8 mm
03:50 PM 57.7°F14.3°C 55.1°F12.8°C 91% Calm Calm -- 29.79 in1008.8 mb 0.02 in0.5 mm 0.00 in0.0 mm 0.23 in5.8 mm
03:55 PM 57.6°F14.2°C 55.0°F12.8°C 91% Calm Calm -- 29.79 in1008.8 mb 0.03 in0.8 mm 0.12 in3.0 mm 0.24 in6.1 mm
04:00 PM 57.2°F14.0°C 54.6°F12.6°C 91% Calm Calm -- 29.81 in1009.5 mb 0.02 in0.5 mm 0.00 in0.0 mm 0.24 in6.1 mm
04:05 PM 57.1°F13.9°C 54.5°F12.5°C 91% Calm Calm -- 29.81 in1009.5 mb 0.02 in0.5 mm 0.00 in0.0 mm 0.24 in6.1 mm
04:10 PM 56.9°F13.8°C 54.3°F12.4°C 91% Calm Calm -- 29.81 in1009.5 mb 0.02 in0.5 mm 0.00 in0.0 mm 0.24 in6.1 mm
04:15 PM 56.5°F13.6°C 53.6°F12.0°C 90% Calm Calm -- 29.81 in1009.5 mb 0.02 in0.5 mm 0.00 in0.0 mm 0.24 in6.1 mm
04:20 PM 56.1°F13.4°C 52.9°F11.6°C 89% Calm Calm -- 29.81 in1009.5 mb 0.02 in0.5 mm 0.00 in0.0 mm 0.24 in6.1 mm
04:25 PM 56.3°F13.5°C 53.1°F11.7°C 89% Calm Calm -- 29.81 in1009.5 mb 0.02 in0.5 mm 0.00 in0.0 mm 0.24 in6.1 mm
04:30 PM 56.8°F13.8°C 53.6°F12.0°C 89% Calm Calm -- 29.81 in1009.5 mb 0.02 in0.5 mm 0.00 in0.0 mm 0.24 in6.1 mm
04:35 PM 57.1°F13.9°C 53.6°F12.0°C 88% Calm Calm -- 29.81 in1009.5 mb 0.02 in0.5 mm 0.00 in0.0 mm 0.24 in6.1 mm
04:40 PM 57.4°F14.1°C 53.9°F12.2°C 88% Calm Calm -- 29.81 in1009.5 mb 0.02 in0.5 mm 0.00 in0.0 mm 0.24 in6.1 mm
04:45 PM 57.5°F14.2°C 54.0°F12.2°C 88% Calm Calm -- 29.81 in1009.5 mb 0.01 in0.3 mm 0.00 in0.0 mm 0.24 in6.1 mm
04:50 PM 57.5°F14.2°C 54.0°F12.2°C 88% Calm Calm -- 29.81 in1009.5 mb 0.01 in0.3 mm 0.00 in0.0 mm 0.24 in6.1 mm
04:55 PM 57.5°F14.2°C 54.0°F12.2°C 88% Calm Calm -- 29.81 in1009.5 mb 0.00 in0.0 mm 0.00 in0.0 mm 0.24 in6.1 mm
05:00 PM 57.4°F14.1°C 53.9°F12.2°C 88% Calm Calm -- 29.81 in1009.5 mb 0.00 in0.0 mm 0.00 in0.0 mm 0.24 in6.1 mm
05:05 PM 57.3°F14.1°C 54.1°F12.3°C 89% Calm Calm -- 29.81 in1009.5 mb 0.00 in0.0 mm 0.00 in0.0 mm 0.24 in6.1 mm
05:10 PM 57.2°F14.0°C 53.7°F12.1°C 88% Calm Calm -- 29.81 in1009.5 mb 0.00 in0.0 mm 0.00 in0.0 mm 0.24 in6.1 mm
05:15 PM 57.1°F13.9°C 53.9°F12.2°C 89% Calm Calm -- 29.81 in1009.5 mb 0.00 in0.0 mm 0.00 in0.0 mm 0.24 in6.1 mm
05:20 PM 57.1°F13.9°C 53.9°F12.2°C 89% Calm Calm -- 29.81 in1009.5 mb 0.01 in0.3 mm 0.12 in3.0 mm 0.24 in6.1 mm
05:25 PM 57.1°F13.9°C 53.9°F12.2°C 89% Calm Calm -- 29.81 in1009.5 mb 0.01 in0.3 mm 0.00 in0.0 mm 0.24 in6.1 mm
05:30 PM 57.2°F14.0°C 54.0°F12.2°C 89% Calm Calm -- 29.81 in1009.5 mb 0.01 in0.3 mm 0.00 in0.0 mm 0.24 in6.1 mm
05:35 PM 57.2°F14.0°C 54.0°F12.2°C 89% Calm Calm -- 29.81 in1009.5 mb 0.01 in0.3 mm 0.00 in0.0 mm 0.24 in6.1 mm
05:40 PM 57.2°F14.0°C 54.0°F12.2°C 89% Calm Calm -- 29.81 in1009.5 mb 0.01 in0.3 mm 0.00 in0.0 mm 0.24 in6.1 mm
05:45 PM 57.2°F14.0°C 54.0°F12.2°C 89% Calm Calm -- 29.80 in1009.1 mb 0.01 in0.3 mm 0.00 in0.0 mm 0.24 in6.1 mm
05:50 PM 57.3°F14.1°C 54.1°F12.3°C 89% Calm Calm -- 29.80 in1009.1 mb 0.01 in0.3 mm 0.00 in0.0 mm 0.24 in6.1 mm
05:55 PM 57.5°F14.2°C 54.3°F12.4°C 89% Calm Calm -- 29.80 in1009.1 mb 0.01 in0.3 mm 0.00 in0.0 mm 0.24 in6.1 mm
06:00 PM 57.6°F14.2°C 54.4°F12.4°C 89% Calm Calm -- 29.81 in1009.5 mb 0.01 in0.3 mm 0.00 in0.0 mm 0.24 in6.1 mm
06:05 PM 57.8°F14.3°C 54.6°F12.6°C 89% Calm Calm -- 29.81 in1009.5 mb 0.01 in0.3 mm 0.00 in0.0 mm 0.24 in6.1 mm
06:10 PM 57.7°F14.3°C 54.5°F12.5°C 89% Calm Calm -- 29.81 in1009.5 mb 0.01 in0.3 mm 0.00 in0.0 mm 0.24 in6.1 mm
06:15 PM 57.7°F14.3°C 54.5°F12.5°C 89% Calm Calm -- 29.82 in1009.8 mb 0.01 in0.3 mm 0.00 in0.0 mm 0.24 in6.1 mm
06:20 PM 57.6°F14.2°C 54.4°F12.4°C 89% Calm Calm -- 29.82 in1009.8 mb 0.00 in0.0 mm 0.00 in0.0 mm 0.24 in6.1 mm
06:25 PM 57.5°F14.2°C 54.3°F12.4°C 89% Calm Calm -- 29.82 in1009.8 mb 0.00 in0.0 mm 0.00 in0.0 mm 0.24 in6.1 mm
06:30 PM 57.4°F14.1°C 54.2°F12.3°C 89% Calm Calm -- 29.82 in1009.8 mb 0.00 in0.0 mm 0.00 in0.0 mm 0.24 in6.1 mm
06:35 PM 57.3°F14.1°C 53.8°F12.1°C 88% Calm Calm -- 29.82 in1009.8 mb 0.00 in0.0 mm 0.00 in0.0 mm 0.24 in6.1 mm
06:40 PM 57.2°F14.0°C 53.7°F12.1°C 88% Calm Calm -- 29.82 in1009.8 mb 0.00 in0.0 mm 0.00 in0.0 mm 0.24 in6.1 mm
06:45 PM 57.2°F14.0°C 53.7°F12.1°C 88% Calm Calm -- 29.82 in1009.8 mb 0.00 in0.0 mm 0.00 in0.0 mm 0.24 in6.1 mm
06:50 PM 57.1°F13.9°C 53.3°F11.8°C 87% Calm Calm -- 29.82 in1009.8 mb 0.00 in0.0 mm 0.00 in0.0 mm 0.24 in6.1 mm
06:55 PM 57.1°F13.9°C 53.0°F11.7°C 86% Calm Calm -- 29.82 in1009.8 mb 0.00 in0.0 mm 0.00 in0.0 mm 0.24 in6.1 mm
07:00 PM 57.1°F13.9°C 53.0°F11.7°C 86% Calm Calm -- 29.83 in1010.2 mb 0.00 in0.0 mm 0.00 in0.0 mm 0.24 in6.1 mm
07:05 PM 57.0°F13.9°C 52.5°F11.4°C 85% Calm Calm -- 29.83 in1010.2 mb 0.00 in0.0 mm 0.00 in0.0 mm 0.24 in6.1 mm
07:10 PM 56.8°F13.8°C 52.0°F11.1°C 84% Calm Calm -- 29.83 in1010.2 mb 0.00 in0.0 mm 0.00 in0.0 mm 0.24 in6.1 mm
07:15 PM 56.9°F13.8°C 52.1°F11.2°C 84% Calm Calm -- 29.83 in1010.2 mb 0.00 in0.0 mm 0.00 in0.0 mm 0.24 in6.1 mm
07:20 PM 57.0°F13.9°C 52.2°F11.2°C 84% Calm Calm -- 29.83 in1010.2 mb 0.00 in0.0 mm 0.00 in0.0 mm 0.24 in6.1 mm
07:25 PM 57.1°F13.9°C 52.3°F11.3°C 84% Calm Calm -- 29.83 in1010.2 mb 0.00 in0.0 mm 0.00 in0.0 mm 0.24 in6.1 mm
07:30 PM 56.9°F13.8°C 52.1°F11.2°C 84% Calm Calm -- 29.85 in1010.8 mb 0.00 in0.0 mm 0.00 in0.0 mm 0.24 in6.1 mm
07:35 PM 56.2°F13.4°C 51.4°F10.8°C 84% Calm Calm -- 29.85 in1010.8 mb 0.01 in0.3 mm 0.12 in3.0 mm 0.25 in6.4 mm
07:40 PM 55.6°F13.1°C 50.8°F10.4°C 84% Calm Calm -- 29.85 in1010.8 mb 0.01 in0.3 mm 0.00 in0.0 mm 0.25 in6.4 mm
07:45 PM 55.5°F13.1°C 50.7°F10.4°C 84% Calm Calm -- 29.86 in1011.2 mb 0.01 in0.3 mm 0.00 in0.0 mm 0.25 in6.4 mm
07:50 PM 55.4°F13.0°C 50.6°F10.3°C 84% Calm Calm -- 29.86 in1011.2 mb 0.02 in0.5 mm 0.12 in3.0 mm 0.26 in6.6 mm
07:55 PM 55.3°F12.9°C 50.2°F10.1°C 83% Calm Calm -- 29.86 in1011.2 mb 0.02 in0.5 mm 0.00 in0.0 mm 0.26 in6.6 mm
08:00 PM 55.2°F12.9°C 49.5°F9.7°C 81% Calm Calm -- 29.86 in1011.2 mb 0.02 in0.5 mm 0.00 in0.0 mm 0.26 in6.6 mm
08:05 PM 55.4°F13.0°C 49.7°F9.8°C 81% Calm Calm -- 29.86 in1011.2 mb 0.02 in0.5 mm 0.00 in0.0 mm 0.26 in6.6 mm
08:10 PM 55.4°F13.0°C 49.7°F9.8°C 81% Calm Calm -- 29.86 in1011.2 mb 0.02 in0.5 mm 0.00 in0.0 mm 0.26 in6.6 mm
08:15 PM 55.3°F12.9°C 49.9°F9.9°C 82% Calm Calm -- 29.87 in1011.5 mb 0.02 in0.5 mm 0.00 in0.0 mm 0.26 in6.6 mm
08:20 PM 55.3°F12.9°C 49.9°F9.9°C 82% Calm Calm -- 29.87 in1011.5 mb 0.02 in0.5 mm 0.00 in0.0 mm 0.26 in6.6 mm
08:25 PM 55.2°F12.9°C 49.8°F9.9°C 82% Calm Calm -- 29.87 in1011.5 mb 0.02 in0.5 mm 0.00 in0.0 mm 0.26 in6.6 mm
08:30 PM 55.0°F12.8°C 49.6°F9.8°C 82% Calm Calm -- 29.86 in1011.2 mb 0.02 in0.5 mm 0.00 in0.0 mm 0.26 in6.6 mm
08:35 PM 54.9°F12.7°C 49.8°F9.9°C 83% Calm Calm -- 29.86 in1011.2 mb 0.01 in0.3 mm 0.00 in0.0 mm 0.26 in6.6 mm
08:40 PM 54.7°F12.6°C 49.6°F9.8°C 83% Calm Calm -- 29.86 in1011.2 mb 0.01 in0.3 mm 0.00 in0.0 mm 0.26 in6.6 mm
08:45 PM 54.4°F12.4°C 49.3°F9.6°C 83% Calm Calm -- 29.87 in1011.5 mb 0.01 in0.3 mm 0.00 in0.0 mm 0.26 in6.6 mm
08:50 PM 54.1°F12.3°C 49.1°F9.5°C 83% Calm Calm -- 29.87 in1011.5 mb 0.00 in0.0 mm 0.00 in0.0 mm 0.26 in6.6 mm
08:55 PM 54.0°F12.2°C 49.0°F9.4°C 83% Calm Calm -- 29.87 in1011.5 mb 0.00 in0.0 mm 0.00 in0.0 mm 0.26 in6.6 mm
09:00 PM 53.9°F12.2°C 48.9°F9.4°C 83% Calm Calm -- 29.86 in1011.2 mb 0.00 in0.0 mm 0.00 in0.0 mm 0.26 in6.6 mm
09:05 PM 53.9°F12.2°C 48.9°F9.4°C 83% Calm Calm -- 29.86 in1011.2 mb 0.00 in0.0 mm 0.00 in0.0 mm 0.26 in6.6 mm
09:10 PM 53.8°F12.1°C 48.8°F9.3°C 83% Calm Calm -- 29.86 in1011.2 mb 0.00 in0.0 mm 0.00 in0.0 mm 0.26 in6.6 mm
09:15 PM 53.7°F12.1°C 48.7°F9.3°C 83% Calm Calm -- 29.86 in1011.2 mb 0.00 in0.0 mm 0.00 in0.0 mm 0.26 in6.6 mm
09:20 PM 53.8°F12.1°C 49.1°F9.5°C 84% Calm Calm -- 29.86 in1011.2 mb 0.00 in0.0 mm 0.00 in0.0 mm 0.26 in6.6 mm
09:25 PM 53.9°F12.2°C 49.5°F9.7°C 85% Calm Calm -- 29.86 in1011.2 mb 0.03 in0.8 mm 0.36 in9.1 mm 0.29 in7.4 mm
09:30 PM 53.5°F11.9°C 49.4°F9.7°C 86% Calm Calm -- 29.87 in1011.5 mb 0.09 in2.3 mm 0.72 in18.3 mm 0.35 in8.9 mm
09:35 PM 52.8°F11.6°C 49.0°F9.4°C 87% Calm Calm -- 29.87 in1011.5 mb 0.14 in3.6 mm 0.60 in15.2 mm 0.40 in10.2 mm
09:40 PM 52.3°F11.3°C 48.9°F9.4°C 88% Calm Calm -- 29.87 in1011.5 mb 0.17 in4.3 mm 0.36 in9.1 mm 0.43 in10.9 mm
09:45 PM 52.5°F11.4°C 49.0°F9.4°C 88% Calm Calm -- 29.89 in1012.2 mb 0.18 in4.6 mm 0.12 in3.0 mm 0.44 in11.2 mm
09:50 PM 52.2°F11.2°C 48.4°F9.1°C 87% Calm Calm -- 29.89 in1012.2 mb 0.18 in4.6 mm 0.00 in0.0 mm 0.44 in11.2 mm
09:55 PM 52.0°F11.1°C 47.9°F8.8°C 86% Calm Calm -- 29.89 in1012.2 mb 0.18 in4.6 mm 0.00 in0.0 mm 0.44 in11.2 mm
10:00 PM 52.1°F11.2°C 47.7°F8.7°C 85% Calm Calm -- 29.90 in1012.5 mb 0.18 in4.6 mm 0.00 in0.0 mm 0.44 in11.2 mm
10:05 PM 52.1°F11.2°C 48.0°F8.9°C 86% Calm Calm -- 29.90 in1012.5 mb 0.18 in4.6 mm 0.00 in0.0 mm 0.44 in11.2 mm
10:10 PM 52.2°F11.2°C 48.1°F8.9°C 86% Calm Calm -- 29.90 in1012.5 mb 0.18 in4.6 mm 0.00 in0.0 mm 0.44 in11.2 mm
10:15 PM 52.3°F11.3°C 48.2°F9.0°C 86% Calm Calm -- 29.90 in1012.5 mb 0.18 in4.6 mm 0.00 in0.0 mm 0.44 in11.2 mm
10:20 PM 52.2°F11.2°C 48.4°F9.1°C 87% Calm Calm -- 29.90 in1012.5 mb 0.18 in4.6 mm 0.00 in0.0 mm 0.44 in11.2 mm
10:25 PM 52.0°F11.1°C 48.3°F9.1°C 87% Calm Calm -- 29.90 in1012.5 mb 0.15 in3.8 mm 0.00 in0.0 mm 0.44 in11.2 mm
10:30 PM 52.1°F11.2°C 48.3°F9.1°C 87% Calm Calm -- 29.90 in1012.5 mb 0.09 in2.3 mm 0.00 in0.0 mm 0.44 in11.2 mm
10:35 PM 51.9°F11.1°C 48.2°F9.0°C 87% Calm Calm -- 29.90 in1012.5 mb 0.04 in1.0 mm 0.00 in0.0 mm 0.44 in11.2 mm
10:40 PM 51.8°F11.0°C 48.1°F8.9°C 87% Calm Calm -- 29.90 in1012.5 mb 0.02 in0.5 mm 0.00 in0.0 mm 0.45 in11.4 mm
10:45 PM 51.8°F11.0°C 48.1°F8.9°C 87% Calm Calm -- 29.90 in1012.5 mb 0.01 in0.3 mm 0.00 in0.0 mm 0.45 in11.4 mm
10:50 PM 51.6°F10.9°C 47.9°F8.8°C 87% Calm Calm -- 29.90 in1012.5 mb 0.01 in0.3 mm 0.00 in0.0 mm 0.45 in11.4 mm
10:55 PM 51.3°F10.7°C 47.3°F8.5°C 86% Calm Calm -- 29.90 in1012.5 mb 0.01 in0.3 mm 0.00 in0.0 mm 0.45 in11.4 mm
11:00 PM 51.3°F10.7°C 46.9°F8.3°C 85% Calm Calm -- 29.92 in1013.2 mb 0.01 in0.3 mm 0.00 in0.0 mm 0.45 in11.4 mm
11:05 PM 51.4°F10.8°C 46.7°F8.2°C 84% Calm Calm -- 29.92 in1013.2 mb 0.01 in0.3 mm 0.00 in0.0 mm 0.45 in11.4 mm
11:10 PM 51.4°F10.8°C 46.7°F8.2°C 84% Calm Calm -- 29.92 in1013.2 mb 0.01 in0.3 mm 0.00 in0.0 mm 0.45 in11.4 mm
11:15 PM 51.3°F10.7°C 46.6°F8.1°C 84% Calm Calm -- 29.92 in1013.2 mb 0.02 in0.5 mm 0.12 in3.0 mm 0.46 in11.7 mm
11:20 PM 51.1°F10.6°C 46.7°F8.2°C 85% Calm Calm -- 29.92 in1013.2 mb 0.02 in0.5 mm 0.00 in0.0 mm 0.46 in11.7 mm
11:25 PM 51.0°F10.6°C 46.7°F8.2°C 85% Calm Calm -- 29.92 in1013.2 mb 0.04 in1.0 mm 0.24 in6.1 mm 0.48 in12.2 mm
11:30 PM 50.5°F10.3°C 46.2°F7.9°C 85% Calm Calm -- 29.95 in1014.2 mb 0.08 in2.0 mm 0.48 in12.2 mm 0.52 in13.2 mm
11:35 PM 49.6°F9.8°C 45.6°F7.6°C 86% Calm Calm -- 29.95 in1014.2 mb 0.09 in2.3 mm 0.12 in3.0 mm 0.54 in13.7 mm
11:40 PM 49.1°F9.5°C 45.1°F7.3°C 86% 0.4 mph W0.6 kmh W 6.0 mph9.7 kmh 29.95 in1014.2 mb 0.11 in2.8 mm 0.24 in6.1 mm 0.56 in14.2 mm
11:45 PM 48.8°F9.3°C 45.1°F7.3°C 87% 0.7 mph W1.1 kmh W 6.0 mph9.7 kmh 29.96 in1014.6 mb 0.14 in3.6 mm 0.36 in9.1 mm 0.59 in15.0 mm
11:50 PM 48.7°F9.3°C 45.3°F7.4°C 88% 1.0 mph W1.6 kmh W 7.0 mph11.3 kmh 29.96 in1014.6 mb 0.17 in4.3 mm 0.36 in9.1 mm 0.61 in15.5 mm
11:55 PM 48.4°F9.1°C 45.0°F7.2°C 88% Calm Calm 7.0 mph11.3 kmh 29.96 in1014.6 mb 0.19 in4.8 mm 0.24 in6.1 mm 0.64 in16.3 mm